createdAt,value
2022-11-07T00:00:37.462Z,97582.41
2022-11-07T00:03:04.217Z,97577.13
2022-11-07T00:05:30.781Z,97583.53
2022-11-07T00:07:57.175Z,97588.34
2022-11-07T00:10:23.810Z,97592.47
2022-11-07T00:12:50.208Z,97562.41
2022-11-07T00:15:16.766Z,97596.06
2022-11-07T00:17:43.212Z,97599.72
2022-11-07T00:20:10.157Z,97609.25
2022-11-07T00:22:36.553Z,97603.69
2022-11-07T00:25:02.967Z,97603.69
2022-11-07T00:27:29.680Z,97602.00
2022-11-07T00:29:56.117Z,97603.69
2022-11-07T00:32:22.567Z,97604.00
2022-11-07T00:34:49.031Z,97602.03
2022-11-07T00:37:15.564Z,97619.53
2022-11-07T00:39:42.068Z,97635.06
2022-11-07T00:42:08.450Z,97639.81
2022-11-07T00:44:35.088Z,97640.50
2022-11-07T00:47:01.471Z,97659.50
2022-11-07T00:49:27.979Z,97672.03
2022-11-07T00:51:54.363Z,97686.38
2022-11-07T00:54:20.816Z,97683.91
2022-11-07T00:56:47.346Z,97704.72
2022-11-07T00:59:13.890Z,97683.09
2022-11-07T01:01:40.377Z,97683.59
2022-11-07T01:04:25.589Z,97664.63
2022-11-07T01:06:52.020Z,97691.53
2022-11-07T01:09:21.377Z,97681.44
2022-11-07T01:11:48.698Z,97687.88
2022-11-07T01:14:17.794Z,97695.66
2022-11-07T01:16:44.806Z,97665.47
2022-11-07T01:19:11.637Z,97674.69
2022-11-07T01:21:40.306Z,97670.38
2022-11-07T01:24:09.219Z,97677.00
2022-11-07T01:26:37.115Z,97674.34
2022-11-07T01:29:04.247Z,97666.13
2022-11-07T01:31:33.624Z,97674.69
2022-11-07T01:34:00.856Z,97667.41
2022-11-07T01:36:28.108Z,97647.00
2022-11-07T01:38:54.686Z,97646.47
2022-11-07T01:41:32.753Z,97654.22
2022-11-07T01:44:02.044Z,97656.88
2022-11-07T01:46:32.672Z,97650.09
2022-11-07T01:49:05.502Z,97656.53
2022-11-07T01:51:37.634Z,97657.53
2022-11-07T01:54:06.113Z,97641.72
2022-11-07T01:56:35.533Z,97649.13
2022-11-07T01:59:02.889Z,97636.75
2022-11-07T02:01:29.624Z,97642.69
2022-11-07T02:03:59.104Z,97638.06
2022-11-07T02:06:40.955Z,97602.25
2022-11-07T02:09:07.779Z,97602.44
2022-11-07T02:11:34.684Z,97605.53
2022-11-07T02:14:01.081Z,97622.84
2022-11-07T02:16:28.605Z,97607.84
2022-11-07T02:18:55.881Z,97605.38
2022-11-07T02:21:37.063Z,97601.72
2022-11-07T02:24:06.255Z,97594.81
2022-11-07T02:26:34.264Z,97591.53
2022-11-07T02:29:03.224Z,97567.44
2022-11-07T02:31:29.614Z,97568.44
2022-11-07T02:33:56.260Z,97572.34
2022-11-07T02:36:24.467Z,97571.38
2022-11-07T02:38:58.955Z,97558.50
2022-11-07T02:41:31.299Z,97556.81
2022-11-07T02:44:02.543Z,97546.25
2022-11-07T02:46:30.824Z,97548.56
2022-11-07T02:48:59.657Z,97548.25
2022-11-07T02:51:26.376Z,97528.78
2022-11-07T02:53:53.355Z,97515.75
2022-11-07T02:56:20.901Z,97528.09
2022-11-07T02:58:47.493Z,97517.53
2022-11-07T03:01:14.478Z,97499.72
2022-11-07T03:03:43.875Z,97512.91
2022-11-07T03:06:13.035Z,97513.88
2022-11-07T03:08:39.769Z,97512.53
2022-11-07T03:11:06.948Z,97508.91
2022-11-07T03:13:33.654Z,97515.84
2022-11-07T03:16:07.653Z,97497.16
2022-11-07T03:18:34.829Z,97477.53
2022-11-07T03:21:01.626Z,97495.31
2022-11-07T03:23:28.214Z,97481.81
2022-11-07T03:25:54.646Z,97464.47
2022-11-07T03:28:21.221Z,97477.13
2022-11-07T03:30:47.615Z,97465.13
2022-11-07T03:33:14.286Z,97480.41
2022-11-07T03:35:40.852Z,97483.44
2022-11-07T03:38:07.239Z,97480.16
2022-11-07T03:40:33.639Z,97467.28
2022-11-07T03:43:00.021Z,97450.44
2022-11-07T03:45:26.440Z,97443.50
2022-11-07T03:47:52.908Z,97430.81
2022-11-07T03:50:21.204Z,97428.41
2022-11-07T03:52:49.063Z,97417.19
2022-11-07T03:55:18.070Z,97383.25
2022-11-07T03:57:45.667Z,97388.66
2022-11-07T04:00:13.721Z,97373.03
2022-11-07T04:02:40.513Z,97368.22
2022-11-07T04:05:07.543Z,97349.25
2022-11-07T04:07:33.980Z,97351.53
2022-11-07T04:10:00.375Z,97335.63
2022-11-07T04:12:45.243Z,97328.13
2022-11-07T04:15:30.188Z,97311.19
2022-11-07T04:17:56.663Z,97313.56
2022-11-07T04:20:23.195Z,97303.94
2022-11-07T04:22:49.721Z,97288.09
2022-11-07T04:25:16.158Z,97303.22
2022-11-07T04:27:42.637Z,97316.03
2022-11-07T04:30:29.870Z,97320.81
2022-11-07T04:32:58.373Z,97317.97
2022-11-07T04:35:27.780Z,97319.19
2022-11-07T04:37:54.404Z,97313.09
2022-11-07T04:40:20.912Z,97326.94
2022-11-07T04:42:48.430Z,97312.66
2022-11-07T04:45:16.224Z,97328.59
2022-11-07T04:47:43.068Z,97336.47
2022-11-07T04:50:12.710Z,97339.72
2022-11-07T04:52:39.574Z,97355.34
2022-11-07T04:55:07.935Z,97341.44
2022-11-07T04:57:34.357Z,97363.94
2022-11-07T05:00:00.881Z,97377.47
2022-11-07T05:02:28.071Z,97375.13
2022-11-07T05:04:54.577Z,97383.59
2022-11-07T05:07:21.192Z,97399.34
2022-11-07T05:09:47.984Z,97403.09
2022-11-07T05:12:14.793Z,97382.03
2022-11-07T05:14:41.330Z,97407.66
2022-11-07T05:17:08.019Z,97415.81
2022-11-07T05:19:34.456Z,97407.06
2022-11-07T05:22:19.603Z,97404.56
2022-11-07T05:24:46.022Z,97405.19
2022-11-07T05:27:18.408Z,97410.63
2022-11-07T05:29:45.326Z,97405.97
2022-11-07T05:32:12.097Z,97391.66
2022-11-07T05:34:38.548Z,97414.09
2022-11-07T05:37:12.468Z,97413.09
2022-11-07T05:39:39.089Z,97402.41
2022-11-07T05:42:05.951Z,97397.75
2022-11-07T05:44:32.590Z,97397.41
2022-11-07T05:46:59.831Z,97380.91
2022-11-07T05:49:26.273Z,97371.56
2022-11-07T05:51:53.486Z,97395.41
2022-11-07T05:54:20.304Z,97393.78
2022-11-07T05:56:46.740Z,97359.00
2022-11-07T05:59:13.813Z,97350.66
2022-11-07T06:01:40.527Z,97352.28
2022-11-07T06:04:07.768Z,97322.09
2022-11-07T06:06:34.701Z,97321.47
2022-11-07T06:09:01.096Z,97321.84
2022-11-07T06:11:27.571Z,97310.56
2022-11-07T06:13:54.687Z,97317.47
2022-11-07T06:16:21.198Z,97308.53
2022-11-07T06:18:47.614Z,97302.00
2022-11-07T06:21:14.475Z,97300.69
2022-11-07T06:23:40.936Z,97295.69
2022-11-07T06:26:07.436Z,97292.19
2022-11-07T06:28:33.885Z,97284.63
2022-11-07T06:31:01.676Z,97265.13
2022-11-07T06:33:29.830Z,97266.19
2022-11-07T06:36:03.901Z,97257.28
2022-11-07T06:38:30.329Z,97274.41
2022-11-07T06:40:56.750Z,97242.97
2022-11-07T06:43:23.133Z,97252.28
2022-11-07T06:45:49.604Z,97257.00
2022-11-07T06:48:16.001Z,97262.22
2022-11-07T06:50:42.448Z,97257.91
2022-11-07T06:53:11.193Z,97245.97
2022-11-07T06:55:38.537Z,97261.75
2022-11-07T06:58:05.054Z,97268.50
2022-11-07T07:00:33.475Z,97268.31
2022-11-07T07:02:59.962Z,97245.59
2022-11-07T07:05:27.134Z,97278.88
2022-11-07T07:07:55.341Z,97284.28
2022-11-07T07:10:22.414Z,97283.28
2022-11-07T07:12:48.787Z,97292.47
2022-11-07T07:15:15.269Z,97292.47
2022-11-07T07:17:41.669Z,97291.22
2022-11-07T07:20:08.696Z,97303.69
2022-11-07T07:22:35.158Z,97303.06
2022-11-07T07:25:01.602Z,97307.06
2022-11-07T07:27:28.005Z,97314.47
2022-11-07T07:29:54.415Z,97318.28
2022-11-07T07:32:21.317Z,97327.69
2022-11-07T07:34:48.140Z,97334.50
2022-11-07T07:37:14.576Z,97347.56
2022-11-07T07:39:41.043Z,97359.25
2022-11-07T07:42:07.475Z,97351.41
2022-11-07T07:44:34.444Z,97367.81
2022-11-07T07:47:00.915Z,97384.63
2022-11-07T07:49:27.408Z,97387.84
2022-11-07T07:51:53.876Z,97408.84
2022-11-07T07:54:20.373Z,97410.19
2022-11-07T07:56:46.769Z,97443.41
2022-11-07T07:59:13.208Z,97445.88
2022-11-07T08:01:39.761Z,97474.91
2022-11-07T08:04:06.300Z,97497.13
2022-11-07T08:06:34.212Z,97518.78
2022-11-07T08:09:00.816Z,97531.38
2022-11-07T08:11:27.228Z,97559.81
2022-11-07T08:13:58.392Z,97578.84
2022-11-07T08:16:27.436Z,97606.59
2022-11-07T08:18:53.888Z,97620.53
2022-11-07T08:21:20.334Z,97683.97
2022-11-07T08:23:47.369Z,97739.47
2022-11-07T08:26:13.772Z,97736.28
2022-11-07T08:28:40.170Z,97771.78
2022-11-07T08:31:10.723Z,97882.56
2022-11-07T08:33:37.209Z,97921.75
2022-11-07T08:36:05.184Z,97976.38
2022-11-07T08:38:33.376Z,98053.78
2022-11-07T08:41:00.374Z,98104.28
2022-11-07T08:43:27.358Z,98120.50
2022-11-07T08:45:54.986Z,98171.13
2022-11-07T08:48:22.308Z,98150.03
2022-11-07T08:50:53.696Z,98174.38
2022-11-07T08:53:21.262Z,98181.22
2022-11-07T08:55:48.098Z,98213.13
2022-11-07T08:58:15.242Z,98210.47
2022-11-07T09:00:42.353Z,98281.63
2022-11-07T09:05:58.538Z,98251.25
2022-11-07T09:08:25.264Z,98229.31
2022-11-07T09:10:51.761Z,98190.84
2022-11-07T09:13:20.548Z,98164.88
2022-11-07T09:15:51.070Z,98159.44
2022-11-07T09:18:18.918Z,98138.84
2022-11-07T09:20:45.394Z,98128.78
2022-11-07T09:23:11.836Z,98136.97
2022-11-07T09:25:38.256Z,98116.75
2022-11-07T09:28:05.013Z,98094.38
2022-11-07T09:30:31.531Z,98093.88
2022-11-07T09:32:58.277Z,98107.44
2022-11-07T09:35:24.875Z,98111.47
2022-11-07T09:37:51.833Z,98088.38
2022-11-07T09:40:55.755Z,98111.78
2022-11-07T09:43:57.710Z,98144.69
2022-11-07T09:46:30.155Z,98164.19
2022-11-07T09:49:08.920Z,98196.31
2022-11-07T09:51:41.052Z,98187.28
2022-11-07T09:54:17.582Z,98186.31
2022-11-07T09:56:44.482Z,98215.31
2022-11-07T09:59:21.117Z,98226.72
2022-11-07T10:01:47.720Z,98169.28
2022-11-07T10:04:27.266Z,98211.94
2022-11-07T10:07:17.588Z,98209.88
2022-11-07T10:10:00.350Z,98191.59
2022-11-07T10:12:43.270Z,98201.38
2022-11-07T10:15:33.867Z,98204.03
2022-11-07T10:18:09.846Z,98238.84
2022-11-07T10:21:23.061Z,98254.50
2022-11-07T10:24:04.079Z,98250.53
2022-11-07T10:26:31.845Z,98243.59
2022-11-07T10:29:19.237Z,98277.06
2022-11-07T10:31:54.545Z,98275.31
2022-11-07T10:34:36.170Z,98247.25
2022-11-07T10:37:03.904Z,98264.03
2022-11-07T10:39:31.728Z,98208.44
2022-11-07T10:42:04.109Z,98261.72
2022-11-07T10:44:31.452Z,98260.03
2022-11-07T10:46:58.158Z,98253.53
2022-11-07T10:49:32.846Z,98264.09
2022-11-07T10:52:29.471Z,98242.03
2022-11-07T10:55:16.772Z,98226.25
2022-11-07T10:57:45.813Z,98222.75
2022-11-07T11:00:30.395Z,98200.31
2022-11-07T11:02:58.013Z,98209.72
2022-11-07T11:05:33.765Z,98210.16
2022-11-07T11:08:15.450Z,98237.06
2022-11-07T11:10:42.373Z,98210.03
2022-11-07T11:13:29.161Z,98223.75
2022-11-07T11:16:02.752Z,98243.88
2022-11-07T11:18:32.334Z,98252.50
2022-11-07T11:21:02.889Z,98235.81
2022-11-07T11:23:31.914Z,98235.97
2022-11-07T11:26:01.864Z,98245.97
2022-11-07T11:28:34.089Z,98259.47
2022-11-07T11:31:10.864Z,98260.25
2022-11-07T11:33:43.371Z,98260.56
2022-11-07T11:36:21.886Z,98273.19
2022-11-07T11:38:55.011Z,98271.94
2022-11-07T11:41:56.692Z,98268.06
2022-11-07T11:44:39.699Z,98252.41
2022-11-07T11:47:25.649Z,98253.59
2022-11-07T11:49:59.679Z,98254.50
2022-11-07T11:52:28.932Z,98281.03
2022-11-07T11:54:57.254Z,98283.94
2022-11-07T11:57:30.078Z,98266.22
2022-11-07T12:00:17.200Z,98262.06
2022-11-07T12:03:19.357Z,98278.25
2022-11-07T12:05:58.583Z,98286.34
2022-11-07T12:08:46.941Z,98276.94
2022-11-07T12:11:21.537Z,98279.03
2022-11-07T12:14:25.725Z,98274.72
2022-11-07T12:17:04.369Z,98280.34
2022-11-07T12:19:51.854Z,98277.97
2022-11-07T12:22:34.716Z,98284.81
2022-11-07T12:25:21.066Z,98283.91
2022-11-07T12:27:53.569Z,98232.41
2022-11-07T12:30:51.920Z,98300.22
2022-11-07T12:33:42.363Z,98312.63
2022-11-07T12:36:17.828Z,98327.34
2022-11-07T12:39:13.448Z,98310.16
2022-11-07T12:42:08.592Z,98313.91
2022-11-07T12:44:55.818Z,98289.91
2022-11-07T12:47:48.143Z,98327.28
2022-11-07T12:50:34.793Z,98329.03
2022-11-07T12:53:07.664Z,98330.22
2022-11-07T12:55:45.021Z,98316.25
2022-11-07T12:58:20.768Z,98301.84
2022-11-07T13:00:49.259Z,98314.09
2022-11-07T13:03:41.564Z,98307.84
2022-11-07T13:06:22.202Z,98318.56
2022-11-07T13:09:12.770Z,98324.31
2022-11-07T13:11:46.696Z,98320.91
2022-11-07T13:14:26.049Z,98314.53
2022-11-07T13:17:04.739Z,98313.41
2022-11-07T13:19:37.053Z,98310.28
2022-11-07T13:22:07.924Z,98322.78
2022-11-07T13:24:39.000Z,98310.16
2022-11-07T13:27:20.581Z,98304.88
2022-11-07T13:29:47.064Z,98282.44
2022-11-07T13:32:15.428Z,98309.47
2022-11-07T13:34:47.343Z,98292.91
2022-11-07T13:37:36.137Z,98294.91
2022-11-07T13:40:22.903Z,98303.91
2022-11-07T13:42:56.169Z,98302.34
2022-11-07T13:45:34.009Z,98309.91
2022-11-07T13:48:05.208Z,98324.97
2022-11-07T13:50:40.878Z,98328.38
2022-11-07T13:53:18.286Z,98317.63
2022-11-07T13:55:57.899Z,98305.19
2022-11-07T13:58:26.579Z,98322.94
2022-11-07T14:00:53.358Z,98321.81
2022-11-07T14:03:37.854Z,98309.59
2022-11-07T14:06:05.476Z,98326.13
2022-11-07T14:08:39.625Z,98332.56
2022-11-07T14:11:17.723Z,98340.13
2022-11-07T14:13:48.151Z,98314.63
2022-11-07T14:16:19.344Z,98335.34
2022-11-07T14:18:49.724Z,98324.72
2022-11-07T14:21:26.346Z,98329.19
2022-11-07T14:23:52.792Z,98328.03
2022-11-07T14:26:20.958Z,98326.34
2022-11-07T14:28:48.377Z,98330.72
2022-11-07T14:31:36.268Z,98313.06
2022-11-07T14:34:15.234Z,98319.38
2022-11-07T14:36:49.776Z,98304.16
2022-11-07T14:39:17.254Z,98289.88
2022-11-07T14:41:44.717Z,98307.81
2022-11-07T14:44:47.671Z,98302.47
2022-11-07T14:47:26.944Z,98302.72
2022-11-07T14:49:54.395Z,98311.00
2022-11-07T14:52:24.924Z,98304.16
2022-11-07T14:55:03.322Z,98320.09
2022-11-07T14:57:31.877Z,98303.84
2022-11-07T14:59:58.845Z,98306.38
2022-11-07T15:02:30.620Z,98272.13
2022-11-07T15:05:05.343Z,98308.50
2022-11-07T15:07:47.256Z,98308.88
2022-11-07T15:10:24.765Z,98313.81
2022-11-07T15:12:55.239Z,98303.75
2022-11-07T15:15:24.302Z,98298.63
2022-11-07T15:17:53.561Z,98277.78
2022-11-07T15:20:35.396Z,98305.78
2022-11-07T15:23:03.219Z,98304.59
2022-11-07T15:25:42.842Z,98297.03
2022-11-07T15:28:29.503Z,98294.66
2022-11-07T15:30:58.781Z,98289.41
2022-11-07T15:33:29.144Z,98274.81
2022-11-07T15:35:57.602Z,98297.03
2022-11-07T15:38:26.724Z,98275.75
2022-11-07T15:40:53.447Z,98266.53
2022-11-07T15:43:20.499Z,98276.34
2022-11-07T15:45:52.310Z,98273.50
2022-11-07T15:48:21.964Z,98264.88
2022-11-07T15:50:49.952Z,98285.09
2022-11-07T15:53:24.576Z,98276.84
2022-11-07T15:56:14.262Z,98300.56
2022-11-07T15:58:40.980Z,98290.41
2022-11-07T16:01:07.746Z,98283.78
2022-11-07T16:03:34.381Z,98268.22
2022-11-07T16:06:01.898Z,98277.53
2022-11-07T16:08:29.768Z,98274.47
2022-11-07T16:11:01.032Z,98265.38
2022-11-07T16:13:28.281Z,98272.22
2022-11-07T16:15:59.410Z,98290.75
2022-11-07T16:18:26.451Z,98248.00
2022-11-07T16:20:52.990Z,98285.31
2022-11-07T16:23:19.887Z,98296.41
2022-11-07T16:25:49.913Z,98300.22
2022-11-07T16:28:24.448Z,98306.34
2022-11-07T16:30:51.479Z,98290.31
2022-11-07T16:33:19.180Z,98304.69
2022-11-07T16:35:48.377Z,98319.34
2022-11-07T16:38:17.609Z,98318.31
2022-11-07T16:40:44.874Z,98315.34
2022-11-07T16:43:11.444Z,98307.72
2022-11-07T16:45:43.374Z,98300.78
2022-11-07T16:48:23.085Z,98306.91
2022-11-07T16:50:49.821Z,98291.78
2022-11-07T16:53:16.833Z,98281.50
2022-11-07T16:55:50.780Z,98283.19
2022-11-07T16:58:28.852Z,98260.28
2022-11-07T17:00:58.016Z,98249.53
2022-11-07T17:03:24.977Z,98249.84
2022-11-07T17:05:53.711Z,98224.78
2022-11-07T17:08:27.988Z,98211.88
2022-11-07T17:10:54.863Z,98221.16
2022-11-07T17:13:23.099Z,98219.84
2022-11-07T17:15:50.137Z,98195.38
2022-11-07T17:18:22.406Z,98193.75
2022-11-07T17:20:51.639Z,98153.97
2022-11-07T17:23:18.913Z,98136.22
2022-11-07T17:25:52.970Z,98138.72
2022-11-07T17:28:20.668Z,98105.75
2022-11-07T17:30:47.256Z,98099.63
2022-11-07T17:33:13.840Z,98092.53
2022-11-07T17:35:40.343Z,98091.66
2022-11-07T17:38:07.195Z,98103.22
2022-11-07T17:40:34.950Z,98116.81
2022-11-07T17:43:01.568Z,98113.31
2022-11-07T17:45:28.255Z,98129.41
2022-11-07T17:47:54.689Z,98139.34
2022-11-07T17:50:22.447Z,98142.97
2022-11-07T17:52:48.995Z,98149.31
2022-11-07T17:55:15.599Z,98141.03
2022-11-07T17:57:43.395Z,98152.31
2022-11-07T18:00:22.451Z,98141.91
2022-11-07T18:02:51.331Z,98161.25
2022-11-07T18:05:19.941Z,98163.78
2022-11-07T18:07:47.003Z,98160.50
2022-11-07T18:10:15.587Z,98153.00
2022-11-07T18:12:42.682Z,98152.03
2022-11-07T18:15:12.754Z,98141.16
2022-11-07T18:17:40.492Z,98157.34
2022-11-07T18:20:08.768Z,98151.09
2022-11-07T18:22:37.014Z,98173.88
2022-11-07T18:25:05.548Z,98169.94
2022-11-07T18:27:32.131Z,98173.56
2022-11-07T18:29:58.551Z,98174.22
2022-11-07T18:32:24.951Z,98176.19
2022-11-07T18:34:51.386Z,98155.34
2022-11-07T18:37:18.852Z,98165.28
2022-11-07T18:39:45.407Z,98160.94
2022-11-07T18:42:11.984Z,98157.31
2022-11-07T18:44:38.519Z,98145.56
2022-11-07T18:47:04.981Z,98157.91
2022-11-07T18:49:31.693Z,98150.97
2022-11-07T18:51:58.224Z,98153.13
2022-11-07T18:54:26.211Z,98142.69
2022-11-07T18:56:52.800Z,98148.81
2022-11-07T18:59:19.473Z,98152.59
2022-11-07T19:01:46.073Z,98148.16
2022-11-07T19:04:12.810Z,98146.00
2022-11-07T19:06:55.680Z,98135.44
2022-11-07T19:09:40.214Z,98173.88
2022-11-07T19:12:06.939Z,98148.41
2022-11-07T19:14:33.454Z,98168.88
2022-11-07T19:17:00.145Z,98160.13
2022-11-07T19:19:26.871Z,98164.78
2022-11-07T19:21:53.281Z,98159.00
2022-11-07T19:24:19.731Z,98152.34
2022-11-07T19:26:46.251Z,98177.19
2022-11-07T19:29:12.670Z,98161.97
2022-11-07T19:31:39.251Z,98149.69
2022-11-07T19:34:06.054Z,98164.94
2022-11-07T19:36:33.296Z,98152.16
2022-11-07T19:38:59.818Z,98157.59
2022-11-07T19:41:26.310Z,98160.91
2022-11-07T19:43:52.936Z,98154.66
2022-11-07T19:46:22.147Z,98153.00
2022-11-07T19:48:49.971Z,98142.03
2022-11-07T19:51:22.131Z,98135.72
2022-11-07T19:53:54.521Z,98131.72
2022-11-07T19:56:21.691Z,98129.75
2022-11-07T19:58:48.154Z,98139.34
2022-11-07T20:01:18.092Z,98136.38
2022-11-07T20:03:46.782Z,98139.63
2022-11-07T20:06:15.427Z,98115.19
2022-11-07T20:08:43.325Z,98115.75
2022-11-07T20:11:12.823Z,98112.19
2022-11-07T20:13:39.255Z,98105.22
2022-11-07T20:16:08.486Z,98107.81
2022-11-07T20:18:36.728Z,98118.09
2022-11-07T20:21:06.814Z,98119.56
2022-11-07T20:23:33.499Z,98108.31
2022-11-07T20:25:59.961Z,98101.56
2022-11-07T20:28:26.410Z,98099.91
2022-11-07T20:30:56.025Z,98105.22
2022-11-07T20:33:24.335Z,98076.06
2022-11-07T20:35:58.833Z,98094.50
2022-11-07T20:38:25.295Z,98092.34
2022-11-07T20:40:51.698Z,98071.84
2022-11-07T20:43:18.377Z,98036.47
2022-11-07T20:45:45.105Z,98072.19
2022-11-07T20:48:11.681Z,98041.72
2022-11-07T20:50:38.122Z,98037.97
2022-11-07T20:53:04.820Z,98041.69
2022-11-07T20:55:32.177Z,98042.09
2022-11-07T20:57:59.427Z,98023.84
2022-11-07T21:00:25.887Z,98018.53
2022-11-07T21:02:52.323Z,98014.75
2022-11-07T21:05:19.023Z,98009.31
2022-11-07T21:07:45.603Z,97977.47
2022-11-07T21:10:12.020Z,97975.72
2022-11-07T21:12:38.562Z,97974.53
2022-11-07T21:15:05.592Z,97954.97
2022-11-07T21:17:32.796Z,97940.44
2022-11-07T21:19:59.241Z,97952.38
2022-11-07T21:22:29.348Z,97940.13
2022-11-07T21:24:56.390Z,97943.28
2022-11-07T21:27:23.015Z,97931.16
2022-11-07T21:29:49.678Z,97917.97
2022-11-07T21:32:16.070Z,97907.34
2022-11-07T21:34:42.764Z,97922.91
2022-11-07T21:37:09.719Z,97929.41
2022-11-07T21:39:36.157Z,97898.88
2022-11-07T21:42:02.580Z,97900.41
2022-11-07T21:44:29.029Z,97897.44
2022-11-07T21:46:55.552Z,97892.50
2022-11-07T21:49:21.977Z,97874.34
2022-11-07T21:51:50.113Z,97850.19
2022-11-07T21:54:16.548Z,97850.50
2022-11-07T21:56:42.996Z,97852.16
2022-11-07T21:59:10.894Z,97826.22
2022-11-07T22:01:39.172Z,97824.88
2022-11-07T22:04:10.458Z,97809.47
2022-11-07T22:06:43.525Z,97805.63
2022-11-07T22:09:13.123Z,97794.72
2022-11-07T22:11:39.578Z,97756.06
2022-11-07T22:14:06.079Z,97739.31
2022-11-07T22:16:32.664Z,97738.66
2022-11-07T22:19:00.258Z,97754.16
2022-11-07T22:21:26.728Z,97743.94
2022-11-07T22:23:55.696Z,97730.06
2022-11-07T22:26:24.589Z,97701.25
2022-11-07T22:28:51.726Z,97725.03
2022-11-07T22:31:30.281Z,97705.81
2022-11-07T22:33:58.896Z,97725.09
2022-11-07T22:36:25.980Z,97712.41
2022-11-07T22:38:52.575Z,97694.75
2022-11-07T22:41:22.232Z,97687.19
2022-11-07T22:43:49.258Z,97675.81
2022-11-07T22:46:18.166Z,97668.56
2022-11-07T22:48:45.776Z,97654.59
2022-11-07T22:51:18.281Z,97663.91
2022-11-07T22:53:44.960Z,97640.34
2022-11-07T22:56:19.055Z,97650.38
2022-11-07T22:58:46.757Z,97626.59
2022-11-07T23:01:18.315Z,97594.75
2022-11-07T23:03:45.311Z,97595.38
2022-11-07T23:06:12.106Z,97596.34
2022-11-07T23:08:38.761Z,97591.81
2022-11-07T23:11:43.488Z,97611.56
2022-11-07T23:14:00.655Z,97615.88
2022-11-07T23:16:33.487Z,97614.94
2022-11-07T23:19:02.363Z,97619.06
2022-11-07T23:21:29.414Z,97612.16
2022-11-07T23:23:57.611Z,97619.16
2022-11-07T23:26:25.468Z,97606.72
2022-11-07T23:28:52.680Z,97620.47
2022-11-07T23:31:20.056Z,97611.56
2022-11-07T23:33:46.583Z,97607.63
2022-11-07T23:36:17.370Z,97618.31
2022-11-07T23:38:44.542Z,97620.25
2022-11-07T23:41:14.526Z,97602.91
2022-11-07T23:43:42.771Z,97608.19
2022-11-07T23:46:32.039Z,97582.81
2022-11-07T23:49:17.373Z,97585.75
2022-11-07T23:51:45.258Z,97586.72
2022-11-07T23:54:30.440Z,97588.13
2022-11-07T23:56:57.058Z,97604.44
2022-11-07T23:59:42.174Z,97603.31
